sensor_id;sensor_type;location;lat;lon;timestamp;P1;durP1;ratioP1;P2;durP2;ratioP2
19944;SDS011;10134;50.952;6.930;2024-01-30T00:01:05;12.90;;;7.80;;
19944;SDS011;10134;50.952;6.930;2024-01-30T00:03:34;13.15;;;8.20;;
19944;SDS011;10134;50.952;6.930;2024-01-30T00:06:02;11.50;;;8.68;;
19944;SDS011;10134;50.952;6.930;2024-01-30T00:08:33;16.08;;;8.45;;
19944;SDS011;10134;50.952;6.930;2024-01-30T00:11:01;11.45;;;7.95;;
19944;SDS011;10134;50.952;6.930;2024-01-30T00:13:30;14.88;;;7.80;;
19944;SDS011;10134;50.952;6.930;2024-01-30T00:15:59;12.45;;;8.48;;
19944;SDS011;10134;50.952;6.930;2024-01-30T00:18:27;13.93;;;7.82;;
19944;SDS011;10134;50.952;6.930;2024-01-30T00:20:56;11.77;;;8.35;;
19944;SDS011;10134;50.952;6.930;2024-01-30T00:23:25;12.60;;;7.90;;
19944;SDS011;10134;50.952;6.930;2024-01-30T00:25:55;11.95;;;8.07;;
19944;SDS011;10134;50.952;6.930;2024-01-30T00:28:24;16.45;;;8.77;;
19944;SDS011;10134;50.952;6.930;2024-01-30T00:30:52;10.68;;;7.82;;
19944;SDS011;10134;50.952;6.930;2024-01-30T00:33:21;12.75;;;8.55;;
19944;SDS011;10134;50.952;6.930;2024-01-30T00:35:50;13.57;;;8.65;;
19944;SDS011;10134;50.952;6.930;2024-01-30T00:38:18;13.23;;;8.45;;
19944;SDS011;10134;50.952;6.930;2024-01-30T00:40:47;11.23;;;7.72;;
19944;SDS011;10134;50.952;6.930;2024-01-30T00:43:17;13.68;;;8.63;;
19944;SDS011;10134;50.952;6.930;2024-01-30T00:45:48;16.83;;;8.38;;
19944;SDS011;10134;50.952;6.930;2024-01-30T00:48:19;12.02;;;7.68;;
19944;SDS011;10134;50.952;6.930;2024-01-30T00:50:48;13.70;;;7.25;;
19944;SDS011;10134;50.952;6.930;2024-01-30T00:53:17;13.63;;;7.68;;
19944;SDS011;10134;50.952;6.930;2024-01-30T00:55:45;14.65;;;8.27;;
19944;SDS011;10134;50.952;6.930;2024-01-30T00:58:14;14.50;;;8.07;;
19944;SDS011;10134;50.952;6.930;2024-01-30T01:00:46;14.32;;;8.45;;
19944;SDS011;10134;50.952;6.930;2024-01-30T01:03:15;11.10;;;8.23;;
19944;SDS011;10134;50.952;6.930;2024-01-30T01:05:44;13.23;;;7.93;;
19944;SDS011;10134;50.952;6.930;2024-01-30T01:08:13;12.40;;;8.40;;
19944;SDS011;10134;50.952;6.930;2024-01-30T01:10:42;11.70;;;7.30;;
19944;SDS011;10134;50.952;6.930;2024-01-30T01:13:10;12.80;;;7.65;;
19944;SDS011;10134;50.952;6.930;2024-01-30T01:15:40;12.88;;;7.53;;
19944;SDS011;10134;50.952;6.930;2024-01-30T01:18:09;11.18;;;8.02;;
19944;SDS011;10134;50.952;6.930;2024-01-30T01:20:38;9.80;;;7.72;;
19944;SDS011;10134;50.952;6.930;2024-01-30T01:23:06;10.88;;;7.57;;
19944;SDS011;10134;50.952;6.930;2024-01-30T01:25:35;11.02;;;7.40;;
19944;SDS011;10134;50.952;6.930;2024-01-30T01:28:04;13.47;;;7.63;;
19944;SDS011;10134;50.952;6.930;2024-01-30T01:30:33;12.30;;;7.88;;
19944;SDS011;10134;50.952;6.930;2024-01-30T01:33:04;15.63;;;7.90;;
19944;SDS011;10134;50.952;6.930;2024-01-30T01:35:34;13.35;;;8.05;;
19944;SDS011;10134;50.952;6.930;2024-01-30T01:38:02;15.38;;;7.85;;
19944;SDS011;10134;50.952;6.930;2024-01-30T01:40:31;12.05;;;7.65;;
19944;SDS011;10134;50.952;6.930;2024-01-30T01:43:02;13.82;;;8.50;;
19944;SDS011;10134;50.952;6.930;2024-01-30T01:45:32;12.45;;;7.88;;
19944;SDS011;10134;50.952;6.930;2024-01-30T01:48:01;13.00;;;8.15;;
19944;SDS011;10134;50.952;6.930;2024-01-30T01:50:31;11.55;;;7.38;;
19944;SDS011;10134;50.952;6.930;2024-01-30T01:53:01;12.13;;;7.30;;
19944;SDS011;10134;50.952;6.930;2024-01-30T01:55:30;12.40;;;7.63;;
19944;SDS011;10134;50.952;6.930;2024-01-30T01:58:00;10.95;;;7.40;;
19944;SDS011;10134;50.952;6.930;2024-01-30T02:00:29;11.00;;;7.40;;
19944;SDS011;10134;50.952;6.930;2024-01-30T02:02:58;11.15;;;6.85;;
19944;SDS011;10134;50.952;6.930;2024-01-30T02:05:28;11.73;;;7.15;;
19944;SDS011;10134;50.952;6.930;2024-01-30T02:07:59;10.95;;;7.65;;
19944;SDS011;10134;50.952;6.930;2024-01-30T02:10:28;15.38;;;8.13;;
19944;SDS011;10134;50.952;6.930;2024-01-30T02:12:57;15.05;;;8.30;;
19944;SDS011;10134;50.952;6.930;2024-01-30T02:15:25;11.10;;;7.47;;
19944;SDS011;10134;50.952;6.930;2024-01-30T02:17:55;12.75;;;7.95;;
19944;SDS011;10134;50.952;6.930;2024-01-30T02:20:24;10.53;;;7.33;;
19944;SDS011;10134;50.952;6.930;2024-01-30T02:23:00;14.60;;;7.47;;
19944;SDS011;10134;50.952;6.930;2024-01-30T02:25:30;12.15;;;7.63;;
19944;SDS011;10134;50.952;6.930;2024-01-30T02:27:59;13.07;;;7.68;;
19944;SDS011;10134;50.952;6.930;2024-01-30T02:30:28;11.93;;;7.70;;
19944;SDS011;10134;50.952;6.930;2024-01-30T02:32:57;10.65;;;7.22;;
19944;SDS011;10134;50.952;6.930;2024-01-30T02:35:25;11.40;;;7.68;;
19944;SDS011;10134;50.952;6.930;2024-01-30T02:37:54;11.82;;;7.72;;
19944;SDS011;10134;50.952;6.930;2024-01-30T02:40:24;9.20;;;6.57;;
19944;SDS011;10134;50.952;6.930;2024-01-30T02:42:53;14.60;;;8.02;;
19944;SDS011;10134;50.952;6.930;2024-01-30T02:45:22;14.30;;;8.05;;
19944;SDS011;10134;50.952;6.930;2024-01-30T02:47:51;10.88;;;6.97;;
19944;SDS011;10134;50.952;6.930;2024-01-30T02:50:20;11.48;;;7.15;;
19944;SDS011;10134;50.952;6.930;2024-01-30T02:52:49;10.10;;;6.88;;
19944;SDS011;10134;50.952;6.930;2024-01-30T02:55:17;13.07;;;7.63;;
19944;SDS011;10134;50.952;6.930;2024-01-30T02:57:48;14.82;;;7.40;;
19944;SDS011;10134;50.952;6.930;2024-01-30T03:00:16;12.30;;;7.53;;
19944;SDS011;10134;50.952;6.930;2024-01-30T03:02:46;10.03;;;7.07;;
19944;SDS011;10134;50.952;6.930;2024-01-30T03:05:15;13.50;;;6.83;;
19944;SDS011;10134;50.952;6.930;2024-01-30T03:07:44;12.17;;;7.70;;
19944;SDS011;10134;50.952;6.930;2024-01-30T03:10:12;11.53;;;7.30;;
19944;SDS011;10134;50.952;6.930;2024-01-30T03:12:41;11.40;;;6.70;;
19944;SDS011;10134;50.952;6.930;2024-01-30T03:15:11;10.18;;;6.95;;
19944;SDS011;10134;50.952;6.930;2024-01-30T03:17:40;10.50;;;6.40;;
19944;SDS011;10134;50.952;6.930;2024-01-30T03:20:09;11.13;;;6.73;;
19944;SDS011;10134;50.952;6.930;2024-01-30T03:22:39;12.77;;;7.25;;
19944;SDS011;10134;50.952;6.930;2024-01-30T03:25:07;10.60;;;7.70;;
19944;SDS011;10134;50.952;6.930;2024-01-30T03:27:36;12.80;;;7.70;;
19944;SDS011;10134;50.952;6.930;2024-01-30T03:30:06;14.02;;;7.40;;
19944;SDS011;10134;50.952;6.930;2024-01-30T03:32:36;10.70;;;6.65;;
19944;SDS011;10134;50.952;6.930;2024-01-30T03:35:05;13.73;;;7.95;;
19944;SDS011;10134;50.952;6.930;2024-01-30T03:37:34;11.60;;;7.60;;
19944;SDS011;10134;50.952;6.930;2024-01-30T03:40:03;15.55;;;7.45;;
19944;SDS011;10134;50.952;6.930;2024-01-30T03:42:33;12.27;;;7.45;;
19944;SDS011;10134;50.952;6.930;2024-01-30T03:45:02;10.37;;;7.27;;
19944;SDS011;10134;50.952;6.930;2024-01-30T03:47:31;11.30;;;7.45;;
19944;SDS011;10134;50.952;6.930;2024-01-30T03:50:01;12.55;;;6.85;;
19944;SDS011;10134;50.952;6.930;2024-01-30T03:52:31;12.10;;;6.97;;
19944;SDS011;10134;50.952;6.930;2024-01-30T03:55:00;14.27;;;7.47;;
19944;SDS011;10134;50.952;6.930;2024-01-30T03:57:29;10.75;;;7.18;;
19944;SDS011;10134;50.952;6.930;2024-01-30T03:59:58;11.38;;;7.15;;
19944;SDS011;10134;50.952;6.930;2024-01-30T04:02:38;12.70;;;8.05;;
19944;SDS011;10134;50.952;6.930;2024-01-30T04:05:08;9.55;;;6.85;;
19944;SDS011;10134;50.952;6.930;2024-01-30T04:07:37;10.95;;;6.65;;
19944;SDS011;10134;50.952;6.930;2024-01-30T04:10:06;9.25;;;7.03;;
19944;SDS011;10134;50.952;6.930;2024-01-30T04:12:36;11.50;;;7.43;;
19944;SDS011;10134;50.952;6.930;2024-01-30T04:15:05;13.07;;;7.27;;
19944;SDS011;10134;50.952;6.930;2024-01-30T04:17:34;12.33;;;7.00;;
19944;SDS011;10134;50.952;6.930;2024-01-30T04:20:03;12.52;;;6.68;;
19944;SDS011;10134;50.952;6.930;2024-01-30T04:22:34;13.43;;;7.10;;
19944;SDS011;10134;50.952;6.930;2024-01-30T04:25:03;10.00;;;6.50;;
19944;SDS011;10134;50.952;6.930;2024-01-30T04:27:32;13.10;;;6.57;;
19944;SDS011;10134;50.952;6.930;2024-01-30T04:30:01;11.50;;;7.43;;
19944;SDS011;10134;50.952;6.930;2024-01-30T04:32:29;15.15;;;7.10;;
19944;SDS011;10134;50.952;6.930;2024-01-30T04:34:58;9.18;;;6.32;;
19944;SDS011;10134;50.952;6.930;2024-01-30T04:37:27;10.27;;;6.40;;
19944;SDS011;10134;50.952;6.930;2024-01-30T04:39:57;15.52;;;7.45;;
19944;SDS011;10134;50.952;6.930;2024-01-30T04:42:26;9.13;;;6.17;;
19944;SDS011;10134;50.952;6.930;2024-01-30T04:44:55;13.93;;;6.63;;
19944;SDS011;10134;50.952;6.930;2024-01-30T04:47:23;10.55;;;6.65;;
19944;SDS011;10134;50.952;6.930;2024-01-30T04:49:52;10.38;;;6.72;;
19944;SDS011;10134;50.952;6.930;2024-01-30T04:52:21;12.07;;;7.90;;
19944;SDS011;10134;50.952;6.930;2024-01-30T04:54:49;12.07;;;6.97;;
19944;SDS011;10134;50.952;6.930;2024-01-30T04:57:19;10.88;;;6.68;;
19944;SDS011;10134;50.952;6.930;2024-01-30T04:59:48;11.40;;;6.97;;
19944;SDS011;10134;50.952;6.930;2024-01-30T05:02:17;14.02;;;7.45;;
19944;SDS011;10134;50.952;6.930;2024-01-30T05:04:45;12.00;;;7.30;;
19944;SDS011;10134;50.952;6.930;2024-01-30T05:07:14;12.13;;;7.45;;
19944;SDS011;10134;50.952;6.930;2024-01-30T05:09:43;14.40;;;7.30;;
19944;SDS011;10134;50.952;6.930;2024-01-30T05:12:12;12.82;;;6.55;;
19944;SDS011;10134;50.952;6.930;2024-01-30T05:14:42;11.70;;;7.30;;
19944;SDS011;10134;50.952;6.930;2024-01-30T05:17:10;10.17;;;6.53;;
19944;SDS011;10134;50.952;6.930;2024-01-30T05:19:39;10.52;;;6.78;;
19944;SDS011;10134;50.952;6.930;2024-01-30T05:22:08;8.02;;;5.97;;
19944;SDS011;10134;50.952;6.930;2024-01-30T05:24:37;11.88;;;7.35;;
19944;SDS011;10134;50.952;6.930;2024-01-30T05:27:05;11.63;;;6.27;;
19944;SDS011;10134;50.952;6.930;2024-01-30T05:29:34;13.57;;;7.40;;
19944;SDS011;10134;50.952;6.930;2024-01-30T05:32:04;11.43;;;6.53;;
19944;SDS011;10134;50.952;6.930;2024-01-30T05:34:33;15.40;;;6.57;;
19944;SDS011;10134;50.952;6.930;2024-01-30T05:37:03;9.45;;;6.57;;
19944;SDS011;10134;50.952;6.930;2024-01-30T05:39:32;9.50;;;6.50;;
19944;SDS011;10134;50.952;6.930;2024-01-30T05:42:01;8.93;;;6.17;;
19944;SDS011;10134;50.952;6.930;2024-01-30T05:44:30;9.97;;;6.70;;
19944;SDS011;10134;50.952;6.930;2024-01-30T05:46:58;13.67;;;7.23;;
19944;SDS011;10134;50.952;6.930;2024-01-30T05:49:28;10.63;;;7.27;;
19944;SDS011;10134;50.952;6.930;2024-01-30T05:51:57;11.30;;;6.57;;
19944;SDS011;10134;50.952;6.930;2024-01-30T05:54:26;10.80;;;6.40;;
19944;SDS011;10134;50.952;6.930;2024-01-30T05:56:54;10.53;;;6.83;;
19944;SDS011;10134;50.952;6.930;2024-01-30T05:59:23;10.25;;;6.65;;
19944;SDS011;10134;50.952;6.930;2024-01-30T06:01:52;11.93;;;7.13;;
19944;SDS011;10134;50.952;6.930;2024-01-30T06:04:21;11.30;;;7.40;;
19944;SDS011;10134;50.952;6.930;2024-01-30T06:06:51;11.40;;;7.60;;
19944;SDS011;10134;50.952;6.930;2024-01-30T06:09:20;14.63;;;7.67;;
19944;SDS011;10134;50.952;6.930;2024-01-30T06:11:48;12.70;;;7.60;;
19944;SDS011;10134;50.952;6.930;2024-01-30T06:14:17;9.37;;;6.20;;
19944;SDS011;10134;50.952;6.930;2024-01-30T06:16:46;9.63;;;6.73;;
19944;SDS011;10134;50.952;6.930;2024-01-30T06:19:15;9.93;;;7.07;;
19944;SDS011;10134;50.952;6.930;2024-01-30T06:21:44;13.50;;;7.00;;
19944;SDS011;10134;50.952;6.930;2024-01-30T06:24:14;10.83;;;6.40;;
19944;SDS011;10134;50.952;6.930;2024-01-30T06:26:42;9.83;;;6.87;;
19944;SDS011;10134;50.952;6.930;2024-01-30T06:29:11;12.03;;;7.40;;
19944;SDS011;10134;50.952;6.930;2024-01-30T06:31:45;9.13;;;6.43;;
19944;SDS011;10134;50.952;6.930;2024-01-30T06:34:13;12.17;;;7.00;;
19944;SDS011;10134;50.952;6.930;2024-01-30T06:36:43;13.67;;;7.43;;
19944;SDS011;10134;50.952;6.930;2024-01-30T06:39:11;12.73;;;7.20;;
19944;SDS011;10134;50.952;6.930;2024-01-30T06:41:41;14.13;;;7.73;;
19944;SDS011;10134;50.952;6.930;2024-01-30T06:44:10;14.35;;;7.30;;
19944;SDS011;10134;50.952;6.930;2024-01-30T06:46:39;11.43;;;8.20;;
19944;SDS011;10134;50.952;6.930;2024-01-30T06:49:09;12.43;;;7.60;;
19944;SDS011;10134;50.952;6.930;2024-01-30T06:51:38;13.40;;;7.87;;
19944;SDS011;10134;50.952;6.930;2024-01-30T06:54:07;12.53;;;6.80;;
19944;SDS011;10134;50.952;6.930;2024-01-30T06:56:38;12.27;;;7.55;;
19944;SDS011;10134;50.952;6.930;2024-01-30T06:59:07;16.90;;;6.80;;
19944;SDS011;10134;50.952;6.930;2024-01-30T07:01:37;11.02;;;7.40;;
19944;SDS011;10134;50.952;6.930;2024-01-30T07:04:06;9.80;;;7.00;;
19944;SDS011;10134;50.952;6.930;2024-01-30T07:06:35;11.00;;;7.57;;
19944;SDS011;10134;50.952;6.930;2024-01-30T07:09:04;14.10;;;7.78;;
19944;SDS011;10134;50.952;6.930;2024-01-30T07:11:33;10.60;;;6.60;;
19944;SDS011;10134;50.952;6.930;2024-01-30T07:14:03;9.90;;;6.53;;
19944;SDS011;10134;50.952;6.930;2024-01-30T07:16:32;12.63;;;7.45;;
19944;SDS011;10134;50.952;6.930;2024-01-30T07:19:00;12.15;;;7.07;;
19944;SDS011;10134;50.952;6.930;2024-01-30T07:21:29;13.33;;;7.73;;
19944;SDS011;10134;50.952;6.930;2024-01-30T07:23:58;11.40;;;7.95;;
19944;SDS011;10134;50.952;6.930;2024-01-30T07:26:26;9.23;;;6.40;;
19944;SDS011;10134;50.952;6.930;2024-01-30T07:28:58;12.33;;;7.13;;
19944;SDS011;10134;50.952;6.930;2024-01-30T07:31:28;12.48;;;7.07;;
19944;SDS011;10134;50.952;6.930;2024-01-30T07:34:00;11.43;;;7.30;;
19944;SDS011;10134;50.952;6.930;2024-01-30T07:36:29;14.05;;;7.93;;
19944;SDS011;10134;50.952;6.930;2024-01-30T07:38:58;9.50;;;6.93;;
19944;SDS011;10134;50.952;6.930;2024-01-30T07:41:27;13.35;;;7.45;;
19944;SDS011;10134;50.952;6.930;2024-01-30T07:43:55;11.05;;;7.22;;
19944;SDS011;10134;50.952;6.930;2024-01-30T07:46:24;14.37;;;7.53;;
19944;SDS011;10134;50.952;6.930;2024-01-30T07:48:54;14.10;;;7.53;;
19944;SDS011;10134;50.952;6.930;2024-01-30T07:51:24;12.20;;;7.32;;
19944;SDS011;10134;50.952;6.930;2024-01-30T07:53:52;15.00;;;7.33;;
19944;SDS011;10134;50.952;6.930;2024-01-30T07:56:21;10.70;;;7.17;;
19944;SDS011;10134;50.952;6.930;2024-01-30T07:58:50;9.63;;;6.37;;
19944;SDS011;10134;50.952;6.930;2024-01-30T08:01:18;12.00;;;6.50;;
19944;SDS011;10134;50.952;6.930;2024-01-30T08:03:47;10.27;;;6.47;;
19944;SDS011;10134;50.952;6.930;2024-01-30T08:06:17;9.18;;;6.50;;
19944;SDS011;10134;50.952;6.930;2024-01-30T08:08:46;12.07;;;7.13;;
19944;SDS011;10134;50.952;6.930;2024-01-30T08:11:16;11.23;;;6.97;;
19944;SDS011;10134;50.952;6.930;2024-01-30T08:13:46;11.18;;;6.72;;
19944;SDS011;10134;50.952;6.930;2024-01-30T08:16:14;10.48;;;6.53;;
19944;SDS011;10134;50.952;6.930;2024-01-30T08:18:43;12.10;;;7.60;;
19944;SDS011;10134;50.952;6.930;2024-01-30T08:21:12;12.65;;;6.78;;
19944;SDS011;10134;50.952;6.930;2024-01-30T08:23:43;10.75;;;6.68;;
19944;SDS011;10134;50.952;6.930;2024-01-30T08:26:11;13.10;;;7.25;;
19944;SDS011;10134;50.952;6.930;2024-01-30T08:28:40;12.43;;;8.05;;
19944;SDS011;10134;50.952;6.930;2024-01-30T08:31:10;12.43;;;6.57;;
19944;SDS011;10134;50.952;6.930;2024-01-30T08:33:39;12.55;;;7.95;;
19944;SDS011;10134;50.952;6.930;2024-01-30T08:36:10;16.83;;;9.50;;
19944;SDS011;10134;50.952;6.930;2024-01-30T08:38:38;24.00;;;12.43;;
19944;SDS011;10134;50.952;6.930;2024-01-30T08:41:08;14.73;;;8.68;;
19944;SDS011;10134;50.952;6.930;2024-01-30T08:43:37;13.88;;;7.93;;
19944;SDS011;10134;50.952;6.930;2024-01-30T08:46:06;12.52;;;8.02;;
19944;SDS011;10134;50.952;6.930;2024-01-30T08:48:35;16.07;;;7.53;;
19944;SDS011;10134;50.952;6.930;2024-01-30T08:51:04;11.15;;;6.75;;
19944;SDS011;10134;50.952;6.930;2024-01-30T08:53:35;11.93;;;6.80;;
19944;SDS011;10134;50.952;6.930;2024-01-30T08:56:05;11.25;;;6.72;;
19944;SDS011;10134;50.952;6.930;2024-01-30T08:58:36;12.40;;;6.53;;
19944;SDS011;10134;50.952;6.930;2024-01-30T09:01:05;15.30;;;7.57;;
19944;SDS011;10134;50.952;6.930;2024-01-30T09:03:34;12.30;;;7.50;;
19944;SDS011;10134;50.952;6.930;2024-01-30T09:06:03;11.82;;;7.05;;
19944;SDS011;10134;50.952;6.930;2024-01-30T09:08:32;14.27;;;7.13;;
19944;SDS011;10134;50.952;6.930;2024-01-30T09:11:00;15.95;;;7.63;;
19944;SDS011;10134;50.952;6.930;2024-01-30T09:13:28;12.13;;;8.07;;
19944;SDS011;10134;50.952;6.930;2024-01-30T09:15:58;12.65;;;7.43;;
19944;SDS011;10134;50.952;6.930;2024-01-30T09:18:27;14.00;;;7.47;;
19944;SDS011;10134;50.952;6.930;2024-01-30T09:20:56;14.80;;;6.72;;
19944;SDS011;10134;50.952;6.930;2024-01-30T09:23:26;14.50;;;7.80;;
19944;SDS011;10134;50.952;6.930;2024-01-30T09:25:55;13.07;;;7.00;;
19944;SDS011;10134;50.952;6.930;2024-01-30T09:28:24;10.18;;;7.22;;
19944;SDS011;10134;50.952;6.930;2024-01-30T09:30:54;15.80;;;7.75;;
19944;SDS011;10134;50.952;6.930;2024-01-30T09:33:24;17.15;;;8.82;;
19944;SDS011;10134;50.952;6.930;2024-01-30T09:35:52;11.98;;;6.85;;
19944;SDS011;10134;50.952;6.930;2024-01-30T09:38:21;13.10;;;7.75;;
19944;SDS011;10134;50.952;6.930;2024-01-30T09:40:53;10.95;;;7.57;;
19944;SDS011;10134;50.952;6.930;2024-01-30T09:43:23;11.75;;;7.38;;
19944;SDS011;10134;50.952;6.930;2024-01-30T09:45:53;10.95;;;6.85;;
19944;SDS011;10134;50.952;6.930;2024-01-30T09:48:25;15.15;;;8.55;;
19944;SDS011;10134;50.952;6.930;2024-01-30T09:50:54;11.67;;;8.03;;
19944;SDS011;10134;50.952;6.930;2024-01-30T09:53:25;11.83;;;8.30;;
19944;SDS011;10134;50.952;6.930;2024-01-30T09:55:54;12.63;;;7.53;;
19944;SDS011;10134;50.952;6.930;2024-01-30T09:58:23;11.20;;;7.93;;
19944;SDS011;10134;50.952;6.930;2024-01-30T10:00:53;17.40;;;6.88;;
19944;SDS011;10134;50.952;6.930;2024-01-30T10:03:26;9.85;;;7.10;;
19944;SDS011;10134;50.952;6.930;2024-01-30T10:05:55;11.02;;;6.65;;
19944;SDS011;10134;50.952;6.930;2024-01-30T10:08:25;12.07;;;7.93;;
19944;SDS011;10134;50.952;6.930;2024-01-30T10:10:56;11.98;;;7.97;;
19944;SDS011;10134;50.952;6.930;2024-01-30T10:13:26;15.50;;;7.43;;
19944;SDS011;10134;50.952;6.930;2024-01-30T10:15:55;9.57;;;7.05;;
19944;SDS011;10134;50.952;6.930;2024-01-30T10:18:26;13.07;;;8.80;;
19944;SDS011;10134;50.952;6.930;2024-01-30T10:20:56;18.63;;;7.78;;
19944;SDS011;10134;50.952;6.930;2024-01-30T10:23:25;13.15;;;7.50;;
19944;SDS011;10134;50.952;6.930;2024-01-30T10:26:02;13.65;;;8.93;;
19944;SDS011;10134;50.952;6.930;2024-01-30T10:28:32;16.30;;;7.28;;
19944;SDS011;10134;50.952;6.930;2024-01-30T10:31:01;14.13;;;7.82;;
19944;SDS011;10134;50.952;6.930;2024-01-30T10:33:34;11.52;;;7.93;;
19944;SDS011;10134;50.952;6.930;2024-01-30T10:36:03;10.05;;;7.65;;
19944;SDS011;10134;50.952;6.930;2024-01-30T10:38:35;11.88;;;7.05;;
19944;SDS011;10134;50.952;6.930;2024-01-30T10:41:07;11.63;;;7.32;;
19944;SDS011;10134;50.952;6.930;2024-01-30T10:43:41;14.30;;;7.45;;
19944;SDS011;10134;50.952;6.930;2024-01-30T10:46:15;16.52;;;7.68;;
19944;SDS011;10134;50.952;6.930;2024-01-30T10:48:50;15.77;;;7.82;;
19944;SDS011;10134;50.952;6.930;2024-01-30T10:51:25;14.57;;;8.50;;
19944;SDS011;10134;50.952;6.930;2024-01-30T10:53:55;13.15;;;7.97;;
19944;SDS011;10134;50.952;6.930;2024-01-30T10:56:25;13.32;;;7.45;;
19944;SDS011;10134;50.952;6.930;2024-01-30T10:58:54;8.32;;;6.63;;
19944;SDS011;10134;50.952;6.930;2024-01-30T11:01:23;13.25;;;7.72;;
19944;SDS011;10134;50.952;6.930;2024-01-30T11:03:55;11.13;;;6.50;;
19944;SDS011;10134;50.952;6.930;2024-01-30T11:06:25;15.38;;;7.25;;
19944;SDS011;10134;50.952;6.930;2024-01-30T11:09:00;11.80;;;7.15;;
19944;SDS011;10134;50.952;6.930;2024-01-30T11:11:31;13.18;;;6.28;;
19944;SDS011;10134;50.952;6.930;2024-01-30T11:14:00;12.63;;;6.65;;
19944;SDS011;10134;50.952;6.930;2024-01-30T11:16:30;13.18;;;6.72;;
19944;SDS011;10134;50.952;6.930;2024-01-30T11:19:02;14.27;;;7.97;;
19944;SDS011;10134;50.952;6.930;2024-01-30T11:21:30;11.48;;;7.00;;
19944;SDS011;10134;50.952;6.930;2024-01-30T11:23:59;12.98;;;7.45;;
19944;SDS011;10134;50.952;6.930;2024-01-30T11:26:30;10.00;;;6.13;;
19944;SDS011;10134;50.952;6.930;2024-01-30T11:29:02;10.25;;;6.45;;
19944;SDS011;10134;50.952;6.930;2024-01-30T11:31:32;12.63;;;7.30;;
19944;SDS011;10134;50.952;6.930;2024-01-30T11:34:02;11.75;;;6.93;;
19944;SDS011;10134;50.952;6.930;2024-01-30T11:36:32;11.55;;;6.68;;
19944;SDS011;10134;50.952;6.930;2024-01-30T11:39:04;11.73;;;7.38;;
19944;SDS011;10134;50.952;6.930;2024-01-30T11:41:34;11.52;;;7.13;;
19944;SDS011;10134;50.952;6.930;2024-01-30T11:44:05;16.20;;;7.18;;
19944;SDS011;10134;50.952;6.930;2024-01-30T11:46:34;13.63;;;6.70;;
19944;SDS011;10134;50.952;6.930;2024-01-30T11:49:04;13.02;;;7.07;;
19944;SDS011;10134;50.952;6.930;2024-01-30T11:51:33;15.23;;;7.03;;
19944;SDS011;10134;50.952;6.930;2024-01-30T11:54:01;11.30;;;7.53;;
19944;SDS011;10134;50.952;6.930;2024-01-30T11:56:30;8.75;;;6.00;;
19944;SDS011;10134;50.952;6.930;2024-01-30T11:58:59;11.38;;;7.85;;
19944;SDS011;10134;50.952;6.930;2024-01-30T12:01:28;12.15;;;6.30;;
19944;SDS011;10134;50.952;6.930;2024-01-30T12:03:59;10.77;;;6.07;;
19944;SDS011;10134;50.952;6.930;2024-01-30T12:06:29;11.30;;;6.15;;
19944;SDS011;10134;50.952;6.930;2024-01-30T12:08:59;11.13;;;6.38;;
19944;SDS011;10134;50.952;6.930;2024-01-30T12:11:31;10.10;;;6.30;;
19944;SDS011;10134;50.952;6.930;2024-01-30T12:13:59;10.52;;;6.07;;
19944;SDS011;10134;50.952;6.930;2024-01-30T12:16:28;8.65;;;5.63;;
19944;SDS011;10134;50.952;6.930;2024-01-30T12:19:00;7.25;;;5.18;;
19944;SDS011;10134;50.952;6.930;2024-01-30T12:21:31;15.80;;;6.70;;
19944;SDS011;10134;50.952;6.930;2024-01-30T12:24:00;8.95;;;5.30;;
19944;SDS011;10134;50.952;6.930;2024-01-30T12:26:28;13.07;;;7.10;;
19944;SDS011;10134;50.952;6.930;2024-01-30T12:28:57;11.45;;;6.35;;
19944;SDS011;10134;50.952;6.930;2024-01-30T12:31:26;10.18;;;6.10;;
19944;SDS011;10134;50.952;6.930;2024-01-30T12:33:55;10.25;;;6.57;;
19944;SDS011;10134;50.952;6.930;2024-01-30T12:36:25;10.38;;;6.15;;
19944;SDS011;10134;50.952;6.930;2024-01-30T12:38:56;10.32;;;5.75;;
19944;SDS011;10134;50.952;6.930;2024-01-30T12:41:25;11.65;;;6.63;;
19944;SDS011;10134;50.952;6.930;2024-01-30T12:43:57;11.35;;;6.35;;
19944;SDS011;10134;50.952;6.930;2024-01-30T12:46:27;13.30;;;6.18;;
19944;SDS011;10134;50.952;6.930;2024-01-30T12:48:57;13.32;;;6.43;;
19944;SDS011;10134;50.952;6.930;2024-01-30T12:51:25;9.23;;;6.00;;
19944;SDS011;10134;50.952;6.930;2024-01-30T12:53:56;14.38;;;6.47;;
19944;SDS011;10134;50.952;6.930;2024-01-30T12:56:24;11.40;;;6.28;;
19944;SDS011;10134;50.952;6.930;2024-01-30T12:58:53;12.55;;;6.95;;
19944;SDS011;10134;50.952;6.930;2024-01-30T13:01:22;14.50;;;6.55;;
19944;SDS011;10134;50.952;6.930;2024-01-30T13:03:51;13.27;;;8.63;;
19944;SDS011;10134;50.952;6.930;2024-01-30T13:06:21;11.15;;;6.90;;
19944;SDS011;10134;50.952;6.930;2024-01-30T13:08:49;13.55;;;7.90;;
19944;SDS011;10134;50.952;6.930;2024-01-30T13:11:20;15.25;;;8.05;;
19944;SDS011;10134;50.952;6.930;2024-01-30T13:13:49;15.63;;;8.77;;
19944;SDS011;10134;50.952;6.930;2024-01-30T13:16:17;17.52;;;8.95;;
19944;SDS011;10134;50.952;6.930;2024-01-30T13:18:46;14.52;;;6.95;;
19944;SDS011;10134;50.952;6.930;2024-01-30T13:21:15;12.40;;;5.57;;
19944;SDS011;10134;50.952;6.930;2024-01-30T13:23:45;11.10;;;6.03;;
19944;SDS011;10134;50.952;6.930;2024-01-30T13:26:16;12.55;;;6.43;;
19944;SDS011;10134;50.952;6.930;2024-01-30T13:28:45;10.88;;;5.85;;
19944;SDS011;10134;50.952;6.930;2024-01-30T13:31:14;9.45;;;5.65;;
19944;SDS011;10134;50.952;6.930;2024-01-30T13:33:45;8.95;;;5.38;;
19944;SDS011;10134;50.952;6.930;2024-01-30T13:36:14;8.15;;;5.10;;
19944;SDS011;10134;50.952;6.930;2024-01-30T13:38:43;9.38;;;5.18;;
19944;SDS011;10134;50.952;6.930;2024-01-30T13:41:11;14.40;;;4.85;;
19944;SDS011;10134;50.952;6.930;2024-01-30T13:43:40;8.60;;;5.10;;
19944;SDS011;10134;50.952;6.930;2024-01-30T13:46:10;11.13;;;4.97;;
19944;SDS011;10134;50.952;6.930;2024-01-30T13:48:39;5.60;;;4.00;;
19944;SDS011;10134;50.952;6.930;2024-01-30T13:51:08;6.22;;;3.90;;
19944;SDS011;10134;50.952;6.930;2024-01-30T13:53:37;5.57;;;3.72;;
19944;SDS011;10134;50.952;6.930;2024-01-30T13:56:07;11.82;;;4.43;;
19944;SDS011;10134;50.952;6.930;2024-01-30T13:58:36;8.52;;;4.25;;
19944;SDS011;10134;50.952;6.930;2024-01-30T14:01:05;13.40;;;5.15;;
19944;SDS011;10134;50.952;6.930;2024-01-30T14:03:35;8.73;;;4.80;;
19944;SDS011;10134;50.952;6.930;2024-01-30T14:06:04;10.32;;;4.43;;
19944;SDS011;10134;50.952;6.930;2024-01-30T14:08:33;11.23;;;4.57;;
19944;SDS011;10134;50.952;6.930;2024-01-30T14:11:02;9.65;;;4.53;;
19944;SDS011;10134;50.952;6.930;2024-01-30T14:13:31;11.18;;;4.97;;
19944;SDS011;10134;50.952;6.930;2024-01-30T14:16:01;7.72;;;4.30;;
19944;SDS011;10134;50.952;6.930;2024-01-30T14:18:31;9.45;;;4.82;;
19944;SDS011;10134;50.952;6.930;2024-01-30T14:21:02;12.48;;;5.10;;
19944;SDS011;10134;50.952;6.930;2024-01-30T14:23:32;10.13;;;4.97;;
19944;SDS011;10134;50.952;6.930;2024-01-30T14:26:12;9.48;;;5.28;;
19944;SDS011;10134;50.952;6.930;2024-01-30T14:28:42;13.07;;;5.40;;
19944;SDS011;10134;50.952;6.930;2024-01-30T14:31:12;11.15;;;5.25;;
19944;SDS011;10134;50.952;6.930;2024-01-30T14:33:45;10.45;;;5.22;;
19944;SDS011;10134;50.952;6.930;2024-01-30T14:48:23;17.65;;;8.10;;
19944;SDS011;10134;50.952;6.930;2024-01-30T14:51:20;10.57;;;5.03;;
19944;SDS011;10134;50.952;6.930;2024-01-30T14:53:50;18.58;;;4.82;;
19944;SDS011;10134;50.952;6.930;2024-01-30T14:56:19;7.28;;;5.00;;
19944;SDS011;10134;50.952;6.930;2024-01-30T14:58:48;8.05;;;5.15;;
19944;SDS011;10134;50.952;6.930;2024-01-30T15:01:17;12.32;;;4.53;;